sensor_id;sensor_type;location;lat;lon;timestamp;pressure;altitude;pressure_sealevel;temperature;humidity
40918;BME280;26644;50.248;19.032;2023-06-26T00:00:47;98196.53;;;16.46;70.19
40918;BME280;26644;50.248;19.032;2023-06-26T00:03:52;98199.97;;;16.42;70.49
40918;BME280;26644;50.248;19.032;2023-06-26T00:06:59;98196.69;;;16.40;70.78
40918;BME280;26644;50.248;19.032;2023-06-26T00:10:05;98202.56;;;16.39;70.96
40918;BME280;26644;50.248;19.032;2023-06-26T00:13:10;98197.81;;;16.39;71.45
40918;BME280;26644;50.248;19.032;2023-06-26T00:16:16;98186.41;;;16.32;71.57
40918;BME280;26644;50.248;19.032;2023-06-26T00:19:20;98201.72;;;16.38;71.67
40918;BME280;26644;50.248;19.032;2023-06-26T00:22:27;98196.69;;;16.40;71.86
40918;BME280;26644;50.248;19.032;2023-06-26T00:25:31;98201.09;;;16.41;72.00
40918;BME280;26644;50.248;19.032;2023-06-26T00:28:36;98196.88;;;16.44;71.91
40918;BME280;26644;50.248;19.032;2023-06-26T00:31:41;98202.56;;;16.39;71.81
40918;BME280;26644;50.248;19.032;2023-06-26T00:34:46;98198.16;;;16.38;71.64
40918;BME280;26644;50.248;19.032;2023-06-26T00:37:53;98188.06;;;16.33;71.65
40918;BME280;26644;50.248;19.032;2023-06-26T00:40:58;98185.59;;;16.32;71.39
40918;BME280;26644;50.248;19.032;2023-06-26T00:44:04;98181.84;;;16.27;71.27
40918;BME280;26644;50.248;19.032;2023-06-26T00:47:15;98179.22;;;16.22;71.40
40918;BME280;26644;50.248;19.032;2023-06-26T00:50:21;98189.16;;;16.23;71.43
40918;BME280;26644;50.248;19.032;2023-06-26T00:53:30;98184.44;;;16.15;71.38
40918;BME280;26644;50.248;19.032;2023-06-26T00:56:35;98193.53;;;16.07;71.33
40918;BME280;26644;50.248;19.032;2023-06-26T00:59:41;98191.25;;;16.00;71.11
40918;BME280;26644;50.248;19.032;2023-06-26T01:02:45;98188.63;;;15.95;71.64
40918;BME280;26644;50.248;19.032;2023-06-26T01:05:52;98191.03;;;15.88;71.75
40918;BME280;26644;50.248;19.032;2023-06-26T01:09:00;98182.19;;;15.77;72.26
40918;BME280;26644;50.248;19.032;2023-06-26T01:12:06;98171.44;;;15.75;72.37
40918;BME280;26644;50.248;19.032;2023-06-26T01:15:11;98176.00;;;15.80;72.63
40918;BME280;26644;50.248;19.032;2023-06-26T01:18:16;98167.69;;;15.71;72.56
40918;BME280;26644;50.248;19.032;2023-06-26T01:21:20;98171.59;;;15.70;72.94
40918;BME280;26644;50.248;19.032;2023-06-26T01:24:42;98159.03;;;15.64;73.12
40918;BME280;26644;50.248;19.032;2023-06-26T01:27:59;98174.34;;;15.70;73.09
40918;BME280;26644;50.248;19.032;2023-06-26T01:31:07;98161.97;;;15.59;72.87
40918;BME280;26644;50.248;19.032;2023-06-26T01:34:12;98167.84;;;15.66;72.75
40918;BME280;26644;50.248;19.032;2023-06-26T01:37:17;98156.91;;;15.61;72.94
40918;BME280;26644;50.248;19.032;2023-06-26T01:40:21;98163.72;;;15.55;72.58
40918;BME280;26644;50.248;19.032;2023-06-26T01:43:43;98164.47;;;15.47;72.67
40918;BME280;26644;50.248;19.032;2023-06-26T01:47:03;98161.03;;;15.41;73.15
40918;BME280;26644;50.248;19.032;2023-06-26T01:50:18;98156.63;;;15.40;73.32
40918;BME280;26644;50.248;19.032;2023-06-26T01:53:35;98154.50;;;15.37;73.46
40918;BME280;26644;50.248;19.032;2023-06-26T01:56:45;98148.44;;;15.26;73.62
40918;BME280;26644;50.248;19.032;2023-06-26T01:59:56;98162.63;;;15.33;74.23
40918;BME280;26644;50.248;19.032;2023-06-26T02:03:03;98151.88;;;15.32;74.04
40918;BME280;26644;50.248;19.032;2023-06-26T02:06:08;98146.16;;;15.28;73.91
40918;BME280;26644;50.248;19.032;2023-06-26T02:09:13;98158.72;;;15.34;73.65
40918;BME280;26644;50.248;19.032;2023-06-26T02:12:17;98161.28;;;15.31;73.75
40918;BME280;26644;50.248;19.032;2023-06-26T02:15:24;98148.75;;;15.24;73.46
40918;BME280;26644;50.248;19.032;2023-06-26T02:18:28;98156.34;;;15.19;73.66
40918;BME280;26644;50.248;19.032;2023-06-26T02:21:33;98153.22;;;15.11;74.01
40918;BME280;26644;50.248;19.032;2023-06-26T02:24:39;98146.63;;;14.99;73.94
40918;BME280;26644;50.248;19.032;2023-06-26T02:27:44;98153.81;;;15.00;74.32
40918;BME280;26644;50.248;19.032;2023-06-26T02:30:51;98149.84;;;14.92;74.32
40918;BME280;26644;50.248;19.032;2023-06-26T02:33:56;98155.91;;;14.94;74.55
40918;BME280;26644;50.248;19.032;2023-06-26T02:37:00;98153.56;;;14.87;74.86
40918;BME280;26644;50.248;19.032;2023-06-26T02:40:06;98153.75;;;14.91;74.69
40918;BME280;26644;50.248;19.032;2023-06-26T02:43:13;98158.16;;;14.92;74.95
40918;BME280;26644;50.248;19.032;2023-06-26T02:46:20;98156.03;;;14.89;74.90
40918;BME280;26644;50.248;19.032;2023-06-26T02:49:25;98163.03;;;14.95;74.89
40918;BME280;26644;50.248;19.032;2023-06-26T02:52:30;98157.22;;;14.97;74.91
40918;BME280;26644;50.248;19.032;2023-06-26T02:55:34;98155.75;;;14.99;75.30
40918;BME280;26644;50.248;19.032;2023-06-26T02:58:39;98160.34;;;15.04;75.18
40918;BME280;26644;50.248;19.032;2023-06-26T03:01:46;98161.00;;;15.09;74.81
40918;BME280;26644;50.248;19.032;2023-06-26T03:04:51;98163.16;;;15.13;74.72
40918;BME280;26644;50.248;19.032;2023-06-26T03:07:55;98167.41;;;15.19;74.24
40918;BME280;26644;50.248;19.032;2023-06-26T03:11:00;98163.06;;;15.26;74.22
40918;BME280;26644;50.248;19.032;2023-06-26T03:14:05;98159.53;;;15.35;73.88
40918;BME280;26644;50.248;19.032;2023-06-26T03:17:13;98146.19;;;15.37;73.57
40918;BME280;26644;50.248;19.032;2023-06-26T03:20:20;98146.69;;;15.39;73.40
40918;BME280;26644;50.248;19.032;2023-06-26T03:23:29;98159.44;;;15.49;73.35
40918;BME280;26644;50.248;19.032;2023-06-26T03:26:34;98161.78;;;15.55;73.31
40918;BME280;26644;50.248;19.032;2023-06-26T03:29:39;98167.97;;;15.61;73.15
40918;BME280;26644;50.248;19.032;2023-06-26T03:32:46;98161.97;;;15.68;73.08
40918;BME280;26644;50.248;19.032;2023-06-26T03:35:51;98166.72;;;15.76;72.86
40918;BME280;26644;50.248;19.032;2023-06-26T03:38:55;98162.50;;;15.78;72.73
40918;BME280;26644;50.248;19.032;2023-06-26T03:42:02;98152.59;;;15.86;72.44
40918;BME280;26644;50.248;19.032;2023-06-26T03:45:07;98167.63;;;16.03;72.36
40918;BME280;26644;50.248;19.032;2023-06-26T03:48:16;98158.34;;;16.07;72.18
40918;BME280;26644;50.248;19.032;2023-06-26T03:51:20;98169.44;;;16.25;72.17
40918;BME280;26644;50.248;19.032;2023-06-26T03:54:25;98166.06;;;16.46;71.73
40918;BME280;26644;50.248;19.032;2023-06-26T03:57:29;98168.38;;;16.70;71.17
40918;BME280;26644;50.248;19.032;2023-06-26T04:00:34;98168.34;;;16.96;70.84
40918;BME280;26644;50.248;19.032;2023-06-26T04:03:41;98158.66;;;17.28;69.85
40918;BME280;26644;50.248;19.032;2023-06-26T04:06:47;98172.09;;;17.74;68.57
40918;BME280;26644;50.248;19.032;2023-06-26T04:09:51;98183.78;;;18.39;67.02
40918;BME280;26644;50.248;19.032;2023-06-26T04:12:56;98180.34;;;19.06;65.00
40918;BME280;26644;50.248;19.032;2023-06-26T04:16:00;98181.91;;;19.74;62.54
40918;BME280;26644;50.248;19.032;2023-06-26T04:19:08;98180.72;;;20.49;60.65
40918;BME280;26644;50.248;19.032;2023-06-26T04:22:12;98181.00;;;21.13;58.41
40918;BME280;26644;50.248;19.032;2023-06-26T04:25:17;98176.69;;;21.60;56.90
40918;BME280;26644;50.248;19.032;2023-06-26T04:28:21;98186.34;;;22.11;55.63
40918;BME280;26644;50.248;19.032;2023-06-26T04:31:27;98186.44;;;22.50;54.49
40918;BME280;26644;50.248;19.032;2023-06-26T04:34:34;98180.69;;;22.78;53.61
40918;BME280;26644;50.248;19.032;2023-06-26T04:37:42;98181.69;;;23.09;52.82
40918;BME280;26644;50.248;19.032;2023-06-26T04:40:47;98185.09;;;23.38;51.98
40918;BME280;26644;50.248;19.032;2023-06-26T04:43:52;98185.47;;;23.60;51.70
40918;BME280;26644;50.248;19.032;2023-06-26T04:46:56;98197.31;;;23.96;51.44
40918;BME280;26644;50.248;19.032;2023-06-26T04:50:05;98189.44;;;24.28;50.30
40918;BME280;26644;50.248;19.032;2023-06-26T04:53:10;98190.34;;;24.63;49.23
40918;BME280;26644;50.248;19.032;2023-06-26T04:56:15;98188.84;;;24.99;48.53
40918;BME280;26644;50.248;19.032;2023-06-26T04:59:19;98197.38;;;25.40;47.65
40918;BME280;26644;50.248;19.032;2023-06-26T05:02:24;98198.59;;;25.84;46.55
40918;BME280;26644;50.248;19.032;2023-06-26T05:05:30;98193.34;;;26.31;45.79
40918;BME280;26644;50.248;19.032;2023-06-26T05:08:35;98196.03;;;26.65;44.85
40918;BME280;26644;50.248;19.032;2023-06-26T05:11:40;98192.94;;;26.96;43.99
40918;BME280;26644;50.248;19.032;2023-06-26T05:14:45;98206.78;;;27.41;42.99
40918;BME280;26644;50.248;19.032;2023-06-26T05:17:49;98214.09;;;27.67;42.57
40918;BME280;26644;50.248;19.032;2023-06-26T05:20:57;98211.78;;;27.98;41.43
40918;BME280;26644;50.248;19.032;2023-06-26T05:24:02;98215.78;;;28.29;40.17
40918;BME280;26644;50.248;19.032;2023-06-26T05:27:10;98212.16;;;28.50;39.23
40918;BME280;26644;50.248;19.032;2023-06-26T05:30:23;98214.94;;;28.72;38.74
40918;BME280;26644;50.248;19.032;2023-06-26T05:33:29;98217.69;;;28.97;38.26
40918;BME280;26644;50.248;19.032;2023-06-26T05:36:38;98215.22;;;29.14;38.02
40918;BME280;26644;50.248;19.032;2023-06-26T05:39:46;98207.81;;;29.38;37.32
40918;BME280;26644;50.248;19.032;2023-06-26T05:42:51;98214.25;;;29.46;37.71
40918;BME280;26644;50.248;19.032;2023-06-26T05:45:57;98210.94;;;29.65;37.32
40918;BME280;26644;50.248;19.032;2023-06-26T05:49:01;98212.06;;;29.79;37.26
40918;BME280;26644;50.248;19.032;2023-06-26T05:52:11;98211.97;;;29.90;36.99
40918;BME280;26644;50.248;19.032;2023-06-26T05:55:17;98204.22;;;30.01;36.68
40918;BME280;26644;50.248;19.032;2023-06-26T05:58:24;98212.56;;;30.23;36.34
40918;BME280;26644;50.248;19.032;2023-06-26T06:01:30;98204.69;;;30.41;36.40
40918;BME280;26644;50.248;19.032;2023-06-26T06:04:37;98213.78;;;30.63;36.00
40918;BME280;26644;50.248;19.032;2023-06-26T06:07:43;98207.69;;;30.65;35.89
40918;BME280;26644;50.248;19.032;2023-06-26T06:10:48;98213.97;;;30.87;35.64
40918;BME280;26644;50.248;19.032;2023-06-26T06:13:52;98212.03;;;31.11;35.32
40918;BME280;26644;50.248;19.032;2023-06-26T06:16:57;98205.38;;;31.25;34.93
40918;BME280;26644;50.248;19.032;2023-06-26T06:20:02;98207.25;;;31.39;34.74
40918;BME280;26644;50.248;19.032;2023-06-26T06:23:10;98213.44;;;30.96;34.61
40918;BME280;26644;50.248;19.032;2023-06-26T06:26:15;98206.50;;;30.62;34.69
40918;BME280;26644;50.248;19.032;2023-06-26T06:29:20;98216.53;;;30.70;35.37
40918;BME280;26644;50.248;19.032;2023-06-26T06:32:24;98212.41;;;30.79;35.00
40918;BME280;26644;50.248;19.032;2023-06-26T06:35:29;98222.16;;;30.74;35.05
40918;BME280;26644;50.248;19.032;2023-06-26T06:38:35;98212.97;;;30.63;35.11
40918;BME280;26644;50.248;19.032;2023-06-26T06:41:40;98214.81;;;30.39;35.22
40918;BME280;26644;50.248;19.032;2023-06-26T06:44:46;98212.63;;;30.57;35.90
40918;BME280;26644;50.248;19.032;2023-06-26T06:47:51;98214.25;;;30.96;35.09
40918;BME280;26644;50.248;19.032;2023-06-26T06:50:55;98211.94;;;31.18;35.01
40918;BME280;26644;50.248;19.032;2023-06-26T06:54:03;98216.69;;;31.60;33.96
40918;BME280;26644;50.248;19.032;2023-06-26T06:57:07;98221.19;;;31.84;33.50
40918;BME280;26644;50.248;19.032;2023-06-26T07:00:13;98213.25;;;31.99;33.44
40918;BME280;26644;50.248;19.032;2023-06-26T07:03:18;98219.34;;;32.25;33.04
40918;BME280;26644;50.248;19.032;2023-06-26T07:06:23;98219.34;;;32.25;32.49
40918;BME280;26644;50.248;19.032;2023-06-26T07:09:30;98220.22;;;32.46;32.81
40918;BME280;26644;50.248;19.032;2023-06-26T07:12:36;98221.09;;;32.43;32.61
40918;BME280;26644;50.248;19.032;2023-06-26T07:15:41;98211.00;;;32.62;32.11
40918;BME280;26644;50.248;19.032;2023-06-26T07:18:46;98220.91;;;32.97;31.75
40918;BME280;26644;50.248;19.032;2023-06-26T07:21:51;98220.16;;;33.33;31.19
40918;BME280;26644;50.248;19.032;2023-06-26T07:24:59;98217.47;;;33.46;30.12
40918;BME280;26644;50.248;19.032;2023-06-26T07:28:09;98218.13;;;33.71;30.16
40918;BME280;26644;50.248;19.032;2023-06-26T07:31:15;98210.88;;;33.29;30.54
40918;BME280;26644;50.248;19.032;2023-06-26T07:34:20;98220.28;;;32.86;30.61
40918;BME280;26644;50.248;19.032;2023-06-26T07:37:25;98206.59;;;32.81;31.40
40918;BME280;26644;50.248;19.032;2023-06-26T07:40:32;98216.75;;;33.22;30.64
40918;BME280;26644;50.248;19.032;2023-06-26T07:43:37;98217.75;;;33.32;28.76
40918;BME280;26644;50.248;19.032;2023-06-26T07:46:41;98211.19;;;33.35;28.40
40918;BME280;26644;50.248;19.032;2023-06-26T07:49:46;98210.75;;;33.73;28.32
40918;BME280;26644;50.248;19.032;2023-06-26T07:52:50;98217.00;;;33.84;29.23
40918;BME280;26644;50.248;19.032;2023-06-26T07:55:59;98217.75;;;34.55;28.79
40918;BME280;26644;50.248;19.032;2023-06-26T07:59:03;98208.41;;;35.13;28.43
40918;BME280;26644;50.248;19.032;2023-06-26T08:02:08;98212.28;;;34.90;27.62
40918;BME280;26644;50.248;19.032;2023-06-26T08:05:12;98212.38;;;34.86;27.17
40918;BME280;26644;50.248;19.032;2023-06-26T08:08:17;98212.16;;;34.80;26.59
40918;BME280;26644;50.248;19.032;2023-06-26T08:11:24;98210.63;;;33.97;26.39
40918;BME280;26644;50.248;19.032;2023-06-26T08:14:29;98202.16;;;33.20;26.79
40918;BME280;26644;50.248;19.032;2023-06-26T08:17:34;98203.59;;;32.21;27.73
40918;BME280;26644;50.248;19.032;2023-06-26T08:20:39;98208.88;;;31.40;28.92
40918;BME280;26644;50.248;19.032;2023-06-26T08:23:43;98200.53;;;30.53;30.15
40918;BME280;26644;50.248;19.032;2023-06-26T08:26:51;98181.44;;;29.63;32.70
40918;BME280;26644;50.248;19.032;2023-06-26T08:29:55;98199.81;;;29.93;33.09
40918;BME280;26644;50.248;19.032;2023-06-26T08:33:00;98188.16;;;30.36;32.54
40918;BME280;26644;50.248;19.032;2023-06-26T08:36:04;98197.19;;;31.00;31.96
40918;BME280;26644;50.248;19.032;2023-06-26T08:39:09;98200.44;;;31.33;31.08
40918;BME280;26644;50.248;19.032;2023-06-26T08:42:16;98203.28;;;31.29;31.26
40918;BME280;26644;50.248;19.032;2023-06-26T08:45:21;98197.47;;;31.09;31.61
40918;BME280;26644;50.248;19.032;2023-06-26T08:48:26;98192.47;;;30.51;32.19
40918;BME280;26644;50.248;19.032;2023-06-26T08:51:38;98184.00;;;29.99;32.83
40918;BME280;26644;50.248;19.032;2023-06-26T08:54:54;98184.66;;;29.65;33.49
40918;BME280;26644;50.248;19.032;2023-06-26T08:58:04;98187.72;;;29.88;32.83
40918;BME280;26644;50.248;19.032;2023-06-26T09:01:09;98187.34;;;30.35;32.43
40918;BME280;26644;50.248;19.032;2023-06-26T09:04:15;98177.00;;;30.98;32.28
40918;BME280;26644;50.248;19.032;2023-06-26T09:07:19;98180.53;;;31.64;31.04
40918;BME280;26644;50.248;19.032;2023-06-26T09:10:24;98172.59;;;32.06;30.22
40918;BME280;26644;50.248;19.032;2023-06-26T09:13:31;98181.63;;;32.48;28.85
40918;BME280;26644;50.248;19.032;2023-06-26T09:16:40;98186.56;;;32.44;28.79
40918;BME280;26644;50.248;19.032;2023-06-26T09:19:46;98185.53;;;31.56;28.98
40918;BME280;26644;50.248;19.032;2023-06-26T09:22:53;98180.94;;;31.04;30.48
40918;BME280;26644;50.248;19.032;2023-06-26T09:25:57;98180.69;;;30.57;30.69
40918;BME280;26644;50.248;19.032;2023-06-26T09:29:06;98170.22;;;30.04;30.72
40918;BME280;26644;50.248;19.032;2023-06-26T09:32:12;98173.84;;;29.49;32.09
40918;BME280;26644;50.248;19.032;2023-06-26T09:35:18;98169.63;;;29.08;33.42
40918;BME280;26644;50.248;19.032;2023-06-26T09:38:22;98174.94;;;28.84;33.50
40918;BME280;26644;50.248;19.032;2023-06-26T09:41:27;98174.22;;;28.62;34.03
40918;BME280;26644;50.248;19.032;2023-06-26T09:44:34;98169.78;;;28.36;33.62
40918;BME280;26644;50.248;19.032;2023-06-26T09:47:44;98170.22;;;28.27;34.26
40918;BME280;26644;50.248;19.032;2023-06-26T09:50:48;98160.09;;;28.59;33.43
40918;BME280;26644;50.248;19.032;2023-06-26T09:53:53;98166.78;;;29.12;32.84
40918;BME280;26644;50.248;19.032;2023-06-26T09:57:07;98162.41;;;29.63;33.07
40918;BME280;26644;50.248;19.032;2023-06-26T10:00:16;98161.47;;;30.33;31.45
40918;BME280;26644;50.248;19.032;2023-06-26T10:03:21;98167.69;;;31.28;30.19
40918;BME280;26644;50.248;19.032;2023-06-26T10:06:33;98158.28;;;32.13;28.78
40918;BME280;26644;50.248;19.032;2023-06-26T10:09:41;98139.84;;;32.69;27.76
40918;BME280;26644;50.248;19.032;2023-06-26T10:12:56;98166.47;;;33.35;26.74
40918;BME280;26644;50.248;19.032;2023-06-26T10:16:07;98163.38;;;33.83;25.77
40918;BME280;26644;50.248;19.032;2023-06-26T10:19:18;98150.22;;;34.06;25.87
40918;BME280;26644;50.248;19.032;2023-06-26T10:22:29;98142.91;;;33.88;26.53
40918;BME280;26644;50.248;19.032;2023-06-26T10:25:44;98139.50;;;33.77;26.73
40918;BME280;26644;50.248;19.032;2023-06-26T10:28:54;98140.38;;;33.57;26.45
40918;BME280;26644;50.248;19.032;2023-06-26T10:32:06;98135.63;;;33.34;26.86
40918;BME280;26644;50.248;19.032;2023-06-26T10:35:12;98139.34;;;32.94;27.65
40918;BME280;26644;50.248;19.032;2023-06-26T10:38:18;98118.72;;;32.26;27.74
40918;BME280;26644;50.248;19.032;2023-06-26T10:41:23;98130.34;;;31.61;28.07
40918;BME280;26644;50.248;19.032;2023-06-26T10:44:40;98128.41;;;30.96;28.86
40918;BME280;26644;50.248;19.032;2023-06-26T10:47:52;98117.84;;;30.65;29.55
40918;BME280;26644;50.248;19.032;2023-06-26T10:50:57;98115.75;;;30.69;29.70
40918;BME280;26644;50.248;19.032;2023-06-26T10:54:14;98114.06;;;31.10;29.62
40918;BME280;26644;50.248;19.032;2023-06-26T10:57:23;98118.47;;;31.42;28.69
40918;BME280;26644;50.248;19.032;2023-06-26T11:00:49;98108.56;;;31.54;28.47
40918;BME280;26644;50.248;19.032;2023-06-26T11:04:05;98101.56;;;31.35;27.64
40918;BME280;26644;50.248;19.032;2023-06-26T11:07:16;98101.53;;;31.08;28.27
40918;BME280;26644;50.248;19.032;2023-06-26T11:10:22;98104.38;;;30.73;29.38
40918;BME280;26644;50.248;19.032;2023-06-26T11:13:28;98104.50;;;30.31;30.10
40918;BME280;26644;50.248;19.032;2023-06-26T11:16:34;98094.00;;;29.83;29.38
40918;BME280;26644;50.248;19.032;2023-06-26T11:19:42;98096.28;;;29.50;30.11
40918;BME280;26644;50.248;19.032;2023-06-26T11:22:52;98098.94;;;29.12;31.25
40918;BME280;26644;50.248;19.032;2023-06-26T11:26:13;98089.78;;;28.86;31.53
40918;BME280;26644;50.248;19.032;2023-06-26T11:29:18;98084.25;;;28.64;30.94
40918;BME280;26644;50.248;19.032;2023-06-26T11:32:26;98083.47;;;28.49;32.76
40918;BME280;26644;50.248;19.032;2023-06-26T11:35:37;98088.34;;;28.31;32.41
40918;BME280;26644;50.248;19.032;2023-06-26T11:38:44;98089.19;;;28.24;32.55
40918;BME280;26644;50.248;19.032;2023-06-26T11:41:49;98087.22;;;28.03;31.81
40918;BME280;26644;50.248;19.032;2023-06-26T11:44:53;98067.91;;;27.91;32.80
40918;BME280;26644;50.248;19.032;2023-06-26T11:47:59;98074.34;;;28.02;32.81
40918;BME280;26644;50.248;19.032;2023-06-26T11:51:07;98077.13;;;28.13;32.75
40918;BME280;26644;50.248;19.032;2023-06-26T11:54:13;98067.47;;;28.03;32.47
40918;BME280;26644;50.248;19.032;2023-06-26T11:57:17;98067.84;;;28.12;32.66
40918;BME280;26644;50.248;19.032;2023-06-26T12:00:23;98063.41;;;28.15;32.81
40918;BME280;26644;50.248;19.032;2023-06-26T12:03:29;98063.44;;;28.11;32.42
40918;BME280;26644;50.248;19.032;2023-06-26T12:06:40;98053.34;;;28.03;32.57
40918;BME280;26644;50.248;19.032;2023-06-26T12:09:50;98061.41;;;28.08;32.64
40918;BME280;26644;50.248;19.032;2023-06-26T12:12:57;98048.16;;;27.98;32.41
40918;BME280;26644;50.248;19.032;2023-06-26T12:16:02;98050.16;;;28.01;32.51
40918;BME280;26644;50.248;19.032;2023-06-26T12:19:08;98046.53;;;27.89;32.16
40918;BME280;26644;50.248;19.032;2023-06-26T12:22:16;98038.88;;;27.72;31.95
40918;BME280;26644;50.248;19.032;2023-06-26T12:25:23;98027.19;;;27.59;31.61
40918;BME280;26644;50.248;19.032;2023-06-26T12:28:35;98024.81;;;27.65;32.24
40918;BME280;26644;50.248;19.032;2023-06-26T12:31:42;98040.50;;;27.73;32.77
40918;BME280;26644;50.248;19.032;2023-06-26T12:34:49;98034.44;;;27.75;33.05
40918;BME280;26644;50.248;19.032;2023-06-26T12:37:57;98048.13;;;27.76;33.23
40918;BME280;26644;50.248;19.032;2023-06-26T12:41:01;98040.47;;;27.84;33.76
40918;BME280;26644;50.248;19.032;2023-06-26T12:44:16;98039.31;;;27.88;32.04
40918;BME280;26644;50.248;19.032;2023-06-26T12:47:25;98036.88;;;27.87;32.43
40918;BME280;26644;50.248;19.032;2023-06-26T12:50:37;98038.06;;;27.89;33.12
40918;BME280;26644;50.248;19.032;2023-06-26T12:53:44;98022.38;;;27.74;32.78
40918;BME280;26644;50.248;19.032;2023-06-26T12:56:49;98028.81;;;27.71;32.80
40918;BME280;26644;50.248;19.032;2023-06-26T12:59:53;98025.63;;;27.58;32.74
40918;BME280;26644;50.248;19.032;2023-06-26T13:02:58;98031.25;;;27.54;32.68
40918;BME280;26644;50.248;19.032;2023-06-26T13:06:03;98016.34;;;27.43;32.78
40918;BME280;26644;50.248;19.032;2023-06-26T13:09:11;98020.75;;;27.55;33.16
40918;BME280;26644;50.248;19.032;2023-06-26T13:12:16;98008.28;;;27.56;33.31
40918;BME280;26644;50.248;19.032;2023-06-26T13:15:21;98018.34;;;27.68;32.96
40918;BME280;26644;50.248;19.032;2023-06-26T13:18:25;98017.53;;;27.78;33.16
40918;BME280;26644;50.248;19.032;2023-06-26T13:21:30;98013.47;;;27.83;33.06
40918;BME280;26644;50.248;19.032;2023-06-26T13:24:37;98016.28;;;27.97;33.34
40918;BME280;26644;50.248;19.032;2023-06-26T13:27:42;98008.22;;;28.10;33.48
40918;BME280;26644;50.248;19.032;2023-06-26T13:30:47;98003.72;;;28.20;33.14
40918;BME280;26644;50.248;19.032;2023-06-26T13:33:52;98007.75;;;28.26;33.01
40918;BME280;26644;50.248;19.032;2023-06-26T13:36:56;98003.31;;;28.25;32.58
40918;BME280;26644;50.248;19.032;2023-06-26T13:40:06;98006.97;;;28.15;32.47
40918;BME280;26644;50.248;19.032;2023-06-26T13:43:11;98002.19;;;28.04;32.70
40918;BME280;26644;50.248;19.032;2023-06-26T13:46:16;97984.47;;;27.97;32.88
40918;BME280;26644;50.248;19.032;2023-06-26T13:49:20;97989.72;;;27.91;32.25
40918;BME280;26644;50.248;19.032;2023-06-26T13:52:25;97988.50;;;27.81;32.13
40918;BME280;26644;50.248;19.032;2023-06-26T13:55:33;97994.56;;;27.76;32.61
40918;BME280;26644;50.248;19.032;2023-06-26T13:58:39;97986.91;;;27.73;32.57
40918;BME280;26644;50.248;19.032;2023-06-26T14:01:44;97979.66;;;27.72;32.85
40918;BME280;26644;50.248;19.032;2023-06-26T14:04:49;97981.28;;;27.77;33.03
40918;BME280;26644;50.248;19.032;2023-06-26T14:07:53;97971.19;;;27.79;32.95
40918;BME280;26644;50.248;19.032;2023-06-26T14:11:01;97963.94;;;27.78;32.43
40918;BME280;26644;50.248;19.032;2023-06-26T14:14:05;97962.38;;;27.70;33.19
40918;BME280;26644;50.248;19.032;2023-06-26T14:17:10;97955.91;;;27.77;33.25
40918;BME280;26644;50.248;19.032;2023-06-26T14:20:17;97959.13;;;27.68;33.14
40918;BME280;26644;50.248;19.032;2023-06-26T14:23:24;97952.69;;;27.56;32.75
40918;BME280;26644;50.248;19.032;2023-06-26T14:26:31;97943.84;;;27.58;33.29
40918;BME280;26644;50.248;19.032;2023-06-26T14:29:36;97942.22;;;27.64;33.28
40918;BME280;26644;50.248;19.032;2023-06-26T14:32:40;97945.44;;;27.63;32.92
40918;BME280;26644;50.248;19.032;2023-06-26T14:35:45;97936.56;;;27.64;32.80
40918;BME280;26644;50.248;19.032;2023-06-26T14:38:50;97922.50;;;27.61;32.67
40918;BME280;26644;50.248;19.032;2023-06-26T14:41:57;97926.91;;;27.65;32.52
40918;BME280;26644;50.248;19.032;2023-06-26T14:45:01;97931.34;;;27.63;32.14
40918;BME280;26644;50.248;19.032;2023-06-26T14:48:07;97926.53;;;27.63;32.58
40918;BME280;26644;50.248;19.032;2023-06-26T14:51:11;97910.81;;;27.59;32.73
40918;BME280;26644;50.248;19.032;2023-06-26T14:54:16;97920.06;;;27.63;32.15
40918;BME280;26644;50.248;19.032;2023-06-26T14:57:22;97921.69;;;27.67;32.72
40918;BME280;26644;50.248;19.032;2023-06-26T15:00:28;97916.03;;;27.64;32.77
40918;BME280;26644;50.248;19.032;2023-06-26T15:03:32;97913.63;;;27.62;32.88
40918;BME280;26644;50.248;19.032;2023-06-26T15:06:37;97896.34;;;27.49;32.75
40918;BME280;26644;50.248;19.032;2023-06-26T15:09:41;97890.72;;;27.49;33.22
40918;BME280;26644;50.248;19.032;2023-06-26T15:12:49;97901.16;;;27.56;32.77
40918;BME280;26644;50.248;19.032;2023-06-26T15:15:53;97889.88;;;27.52;32.75
40918;BME280;26644;50.248;19.032;2023-06-26T15:18:58;97889.50;;;27.43;31.96
40918;BME280;26644;50.248;19.032;2023-06-26T15:22:02;97878.66;;;27.38;32.22
40918;BME280;26644;50.248;19.032;2023-06-26T15:25:08;97884.28;;;27.38;32.36
40918;BME280;26644;50.248;19.032;2023-06-26T15:28:15;97883.50;;;27.34;32.61
40918;BME280;26644;50.248;19.032;2023-06-26T15:31:20;97886.31;;;27.37;32.83
40918;BME280;26644;50.248;19.032;2023-06-26T15:34:24;97866.59;;;27.34;33.06
40918;BME280;26644;50.248;19.032;2023-06-26T15:37:29;97877.84;;;27.34;32.99
40918;BME280;26644;50.248;19.032;2023-06-26T15:40:33;97866.56;;;27.19;33.08
40918;BME280;26644;50.248;19.032;2023-06-26T15:43:41;97865.81;;;27.08;32.76
40918;BME280;26644;50.248;19.032;2023-06-26T15:46:45;97868.63;;;27.01;33.18
40918;BME280;26644;50.248;19.032;2023-06-26T15:49:50;97857.38;;;26.90;33.68
40918;BME280;26644;50.248;19.032;2023-06-26T15:52:54;97866.63;;;26.87;33.05
40918;BME280;26644;50.248;19.032;2023-06-26T15:55:59;97862.22;;;26.79;33.60
40918;BME280;26644;50.248;19.032;2023-06-26T15:59:06;97857.78;;;26.74;33.93
40918;BME280;26644;50.248;19.032;2023-06-26T16:02:11;97855.38;;;26.72;34.07
40918;BME280;26644;50.248;19.032;2023-06-26T16:05:15;97842.09;;;26.73;34.79
40918;BME280;26644;50.248;19.032;2023-06-26T16:08:20;97846.94;;;26.80;34.41
40918;BME280;26644;50.248;19.032;2023-06-26T16:11:24;97846.50;;;26.74;33.63
40918;BME280;26644;50.248;19.032;2023-06-26T16:14:32;97839.69;;;26.71;33.65